sensor_id;sensor_type;location;lat;lon;timestamp;pressure;altitude;pressure_sealevel;temperature;humidity
32761;BME280;19126;47.472;7.850;2023-03-14T00:01:22;95278.78;;;8.65;97.32
32761;BME280;19126;47.472;7.850;2023-03-14T00:03:50;95299.50;;;8.60;97.82
32761;BME280;19126;47.472;7.850;2023-03-14T00:06:21;95307.75;;;8.57;98.95
32761;BME280;19126;47.472;7.850;2023-03-14T00:08:49;95314.84;;;8.70;100.00
32761;BME280;19126;47.472;7.850;2023-03-14T00:11:18;95317.69;;;8.75;100.00
32761;BME280;19126;47.472;7.850;2023-03-14T00:13:49;95327.59;;;8.80;100.00
32761;BME280;19126;47.472;7.850;2023-03-14T00:16:21;95336.81;;;8.76;100.00
32761;BME280;19126;47.472;7.850;2023-03-14T00:18:48;95334.59;;;8.73;100.00
32761;BME280;19126;47.472;7.850;2023-03-14T00:21:15;95329.38;;;8.73;100.00
32761;BME280;19126;47.472;7.850;2023-03-14T00:23:42;95344.91;;;8.81;100.00
32761;BME280;19126;47.472;7.850;2023-03-14T00:26:11;95331.19;;;8.79;100.00
32761;BME280;19126;47.472;7.850;2023-03-14T00:28:39;95331.38;;;8.71;100.00
32761;BME280;19126;47.472;7.850;2023-03-14T00:31:10;95319.66;;;8.67;100.00
32761;BME280;19126;47.472;7.850;2023-03-14T00:33:40;95305.13;;;8.57;100.00
32761;BME280;19126;47.472;7.850;2023-03-14T00:36:09;95303.50;;;8.56;100.00
32761;BME280;19126;47.472;7.850;2023-03-14T00:38:37;95311.16;;;8.58;100.00
32761;BME280;19126;47.472;7.850;2023-03-14T00:41:06;95297.03;;;8.52;100.00
32761;BME280;19126;47.472;7.850;2023-03-14T00:43:34;95299.47;;;8.54;100.00
32761;BME280;19126;47.472;7.850;2023-03-14T00:46:02;95304.28;;;8.50;100.00
32761;BME280;19126;47.472;7.850;2023-03-14T00:48:29;95299.19;;;8.48;100.00
32761;BME280;19126;47.472;7.850;2023-03-14T00:50:57;95302.03;;;8.47;100.00
32761;BME280;19126;47.472;7.850;2023-03-14T00:53:28;95304.63;;;8.47;100.00
32761;BME280;19126;47.472;7.850;2023-03-14T00:56:01;95329.88;;;8.55;100.00
32761;BME280;19126;47.472;7.850;2023-03-14T00:58:28;95342.53;;;8.51;100.00
32761;BME280;19126;47.472;7.850;2023-03-14T01:01:07;95332.59;;;8.46;100.00
32761;BME280;19126;47.472;7.850;2023-03-14T01:03:35;95346.38;;;8.55;100.00
32761;BME280;19126;47.472;7.850;2023-03-14T01:06:12;95341.94;;;8.49;100.00
32761;BME280;19126;47.472;7.850;2023-03-14T01:08:40;95353.00;;;8.51;100.00
32761;BME280;19126;47.472;7.850;2023-03-14T01:11:09;95347.56;;;8.53;100.00
32761;BME280;19126;47.472;7.850;2023-03-14T01:13:36;95329.06;;;8.54;100.00
32761;BME280;19126;47.472;7.850;2023-03-14T01:16:05;95331.91;;;8.59;100.00
32761;BME280;19126;47.472;7.850;2023-03-14T01:18:33;95324.25;;;8.58;100.00
32761;BME280;19126;47.472;7.850;2023-03-14T01:21:00;95312.28;;;8.48;100.00
32761;BME280;19126;47.472;7.850;2023-03-14T01:23:29;95309.06;;;8.46;100.00
32761;BME280;19126;47.472;7.850;2023-03-14T01:25:56;95289.59;;;8.49;100.00
32761;BME280;19126;47.472;7.850;2023-03-14T01:28:26;95286.47;;;8.39;100.00
32761;BME280;19126;47.472;7.850;2023-03-14T01:30:59;95288.28;;;8.38;100.00
32761;BME280;19126;47.472;7.850;2023-03-14T01:33:45;95299.94;;;8.35;100.00
32761;BME280;19126;47.472;7.850;2023-03-14T01:36:19;95304.38;;;8.35;100.00
32761;BME280;19126;47.472;7.850;2023-03-14T01:38:51;95298.94;;;8.36;100.00
32761;BME280;19126;47.472;7.850;2023-03-14T01:44:54;95283.97;;;8.24;100.00
32761;BME280;19126;47.472;7.850;2023-03-14T01:47:22;95305.34;;;8.27;100.00
32761;BME280;19126;47.472;7.850;2023-03-14T01:49:51;95300.88;;;8.21;100.00
32761;BME280;19126;47.472;7.850;2023-03-14T01:52:21;95297.63;;;8.19;100.00
32761;BME280;19126;47.472;7.850;2023-03-14T01:54:51;95291.78;;;8.17;100.00
32761;BME280;19126;47.472;7.850;2023-03-14T01:57:21;95286.50;;;8.10;100.00
32761;BME280;19126;47.472;7.850;2023-03-14T01:59:56;95292.19;;;8.14;100.00
32761;BME280;19126;47.472;7.850;2023-03-14T02:02:29;95282.28;;;8.09;100.00
32761;BME280;19126;47.472;7.850;2023-03-14T02:05:03;95278.44;;;8.05;100.00
32761;BME280;19126;47.472;7.850;2023-03-14T02:07:49;95273.34;;;7.97;100.00
32761;BME280;19126;47.472;7.850;2023-03-14T02:10:20;95273.09;;;7.91;100.00
32761;BME280;19126;47.472;7.850;2023-03-14T02:12:48;95255.97;;;7.89;100.00
32761;BME280;19126;47.472;7.850;2023-03-14T02:15:15;95249.66;;;7.76;100.00
32761;BME280;19126;47.472;7.850;2023-03-14T02:17:43;95243.66;;;7.83;100.00
32761;BME280;19126;47.472;7.850;2023-03-14T02:20:19;95248.28;;;7.81;100.00
32761;BME280;19126;47.472;7.850;2023-03-14T02:22:50;95261.94;;;7.76;100.00
32761;BME280;19126;47.472;7.850;2023-03-14T02:25:21;95254.09;;;7.76;100.00
32761;BME280;19126;47.472;7.850;2023-03-14T02:27:53;95229.97;;;7.74;100.00
32761;BME280;19126;47.472;7.850;2023-03-14T02:30:30;95222.13;;;7.74;100.00
32761;BME280;19126;47.472;7.850;2023-03-14T02:32:58;95211.44;;;7.75;100.00
32761;BME280;19126;47.472;7.850;2023-03-14T02:35:28;95214.03;;;7.69;100.00
32761;BME280;19126;47.472;7.850;2023-03-14T02:38:00;95204.38;;;7.69;100.00
32761;BME280;19126;47.472;7.850;2023-03-14T02:40:28;95197.13;;;7.65;100.00
32761;BME280;19126;47.472;7.850;2023-03-14T02:42:57;95195.06;;;7.60;100.00
32761;BME280;19126;47.472;7.850;2023-03-14T02:45:42;95189.81;;;7.53;100.00
32761;BME280;19126;47.472;7.850;2023-03-14T02:48:15;95188.75;;;7.47;100.00
32761;BME280;19126;47.472;7.850;2023-03-14T02:50:44;95184.09;;;7.43;100.00
32761;BME280;19126;47.472;7.850;2023-03-14T02:53:14;95189.88;;;7.38;100.00
32761;BME280;19126;47.472;7.850;2023-03-14T02:55:47;95187.03;;;7.33;100.00
32761;BME280;19126;47.472;7.850;2023-03-14T02:58:17;95176.09;;;7.23;100.00
32761;BME280;19126;47.472;7.850;2023-03-14T03:00:45;95165.78;;;7.14;100.00
32761;BME280;19126;47.472;7.850;2023-03-14T03:03:12;95153.88;;;7.05;100.00
32761;BME280;19126;47.472;7.850;2023-03-14T03:05:39;95148.88;;;7.10;100.00
32761;BME280;19126;47.472;7.850;2023-03-14T03:08:08;95151.75;;;7.15;100.00
32761;BME280;19126;47.472;7.850;2023-03-14T03:10:35;95147.38;;;7.23;100.00
32761;BME280;19126;47.472;7.850;2023-03-14T03:13:02;95146.84;;;7.34;100.00
32761;BME280;19126;47.472;7.850;2023-03-14T03:15:31;95142.09;;;7.44;100.00
32761;BME280;19126;47.472;7.850;2023-03-14T03:17:58;95140.94;;;7.54;100.00
32761;BME280;19126;47.472;7.850;2023-03-14T03:20:28;95144.00;;;7.57;100.00
32761;BME280;19126;47.472;7.850;2023-03-14T03:22:55;95143.41;;;7.62;100.00
32761;BME280;19126;47.472;7.850;2023-03-14T03:25:22;95140.81;;;7.62;100.00
32761;BME280;19126;47.472;7.850;2023-03-14T03:27:49;95130.78;;;7.66;100.00
32761;BME280;19126;47.472;7.850;2023-03-14T03:30:17;95134.00;;;7.68;100.00
32761;BME280;19126;47.472;7.850;2023-03-14T03:32:45;95126.59;;;7.71;100.00
32761;BME280;19126;47.472;7.850;2023-03-14T03:35:15;95126.41;;;7.73;100.00
32761;BME280;19126;47.472;7.850;2023-03-14T03:37:42;95127.78;;;7.69;100.00
32761;BME280;19126;47.472;7.850;2023-03-14T03:40:10;95120.72;;;7.62;100.00
32761;BME280;19126;47.472;7.850;2023-03-14T03:42:37;95108.81;;;7.60;100.00
32761;BME280;19126;47.472;7.850;2023-03-14T03:45:05;95106.66;;;7.63;100.00
32761;BME280;19126;47.472;7.850;2023-03-14T03:47:32;95108.91;;;7.73;100.00
32761;BME280;19126;47.472;7.850;2023-03-14T03:50:01;95109.09;;;7.72;100.00
32761;BME280;19126;47.472;7.850;2023-03-14T03:52:28;95099.03;;;7.69;100.00
32761;BME280;19126;47.472;7.850;2023-03-14T03:54:55;95107.22;;;7.59;100.00
32761;BME280;19126;47.472;7.850;2023-03-14T03:57:22;95108.03;;;7.59;100.00
32761;BME280;19126;47.472;7.850;2023-03-14T03:59:50;95110.81;;;7.58;100.00
32761;BME280;19126;47.472;7.850;2023-03-14T04:02:17;95108.22;;;7.58;100.00
32761;BME280;19126;47.472;7.850;2023-03-14T04:04:44;95124.72;;;7.58;100.00
32761;BME280;19126;47.472;7.850;2023-03-14T04:07:12;95108.03;;;7.59;100.00
32761;BME280;19126;47.472;7.850;2023-03-14T04:09:40;95101.03;;;7.67;100.00
32761;BME280;19126;47.472;7.850;2023-03-14T04:12:07;95090.38;;;7.68;100.00
32761;BME280;19126;47.472;7.850;2023-03-14T04:14:36;95081.91;;;7.66;100.00
32761;BME280;19126;47.472;7.850;2023-03-14T04:17:03;95069.91;;;7.78;100.00
32761;BME280;19126;47.472;7.850;2023-03-14T04:19:30;95075.19;;;7.85;100.00
32761;BME280;19126;47.472;7.850;2023-03-14T04:21:57;95073.56;;;7.91;100.00
32761;BME280;19126;47.472;7.850;2023-03-14T04:24:26;95060.13;;;7.94;100.00
32761;BME280;19126;47.472;7.850;2023-03-14T04:26:53;95057.75;;;8.06;100.00
32761;BME280;19126;47.472;7.850;2023-03-14T04:32:41;95051.13;;;8.03;100.00
32761;BME280;19126;47.472;7.850;2023-03-14T04:35:08;95043.44;;;8.02;100.00
32761;BME280;19126;47.472;7.850;2023-03-14T04:37:36;95026.75;;;8.03;100.00
32761;BME280;19126;47.472;7.850;2023-03-14T04:40:06;95029.19;;;8.04;100.00
32761;BME280;19126;47.472;7.850;2023-03-14T04:42:34;95014.28;;;8.05;100.00
32761;BME280;19126;47.472;7.850;2023-03-14T04:45:01;95019.75;;;8.17;100.00
32761;BME280;19126;47.472;7.850;2023-03-14T04:47:28;95008.69;;;8.15;100.00
32761;BME280;19126;47.472;7.850;2023-03-14T04:49:56;95011.13;;;8.23;100.00
32761;BME280;19126;47.472;7.850;2023-03-14T04:52:23;95012.94;;;8.29;100.00
32761;BME280;19126;47.472;7.850;2023-03-14T04:54:53;95012.53;;;8.26;100.00
32761;BME280;19126;47.472;7.850;2023-03-14T04:57:21;95015.75;;;8.21;100.00
32761;BME280;19126;47.472;7.850;2023-03-14T04:59:54;95012.91;;;8.23;100.00
32761;BME280;19126;47.472;7.850;2023-03-14T05:02:22;94998.84;;;8.24;100.00
32761;BME280;19126;47.472;7.850;2023-03-14T05:04:52;94998.84;;;8.24;100.00
32761;BME280;19126;47.472;7.850;2023-03-14T05:07:19;94987.56;;;8.30;100.00
32761;BME280;19126;47.472;7.850;2023-03-14T05:09:46;94991.59;;;8.26;100.00
32761;BME280;19126;47.472;7.850;2023-03-14T05:12:16;94983.16;;;8.30;100.00
32761;BME280;19126;47.472;7.850;2023-03-14T05:14:45;94971.88;;;8.30;100.00
32761;BME280;19126;47.472;7.850;2023-03-14T05:17:12;94968.84;;;8.33;100.00
32761;BME280;19126;47.472;7.850;2023-03-14T05:19:40;94968.25;;;8.31;100.00
32761;BME280;19126;47.472;7.850;2023-03-14T05:22:07;94969.88;;;8.32;100.00
32761;BME280;19126;47.472;7.850;2023-03-14T05:24:34;94962.81;;;8.26;100.00
32761;BME280;19126;47.472;7.850;2023-03-14T05:27:01;94952.97;;;8.21;100.00
32761;BME280;19126;47.472;7.850;2023-03-14T05:29:28;94952.38;;;8.19;100.00
32761;BME280;19126;47.472;7.850;2023-03-14T05:31:57;94939.09;;;8.14;100.00
32761;BME280;19126;47.472;7.850;2023-03-14T05:34:24;94937.06;;;8.02;100.00
32761;BME280;19126;47.472;7.850;2023-03-14T05:36:57;94925.38;;;8.05;100.00
32761;BME280;19126;47.472;7.850;2023-03-14T05:39:24;94922.97;;;8.03;100.00
32761;BME280;19126;47.472;7.850;2023-03-14T05:41:54;94916.13;;;8.09;100.00
32761;BME280;19126;47.472;7.850;2023-03-14T05:44:25;94921.56;;;8.14;100.00
32761;BME280;19126;47.472;7.850;2023-03-14T05:46:52;94920.16;;;8.25;100.00
32761;BME280;19126;47.472;7.850;2023-03-14T05:49:21;94907.09;;;8.25;100.00
32761;BME280;19126;47.472;7.850;2023-03-14T05:51:48;94907.09;;;8.25;100.00
32761;BME280;19126;47.472;7.850;2023-03-14T05:54:15;94903.66;;;8.31;100.00
32761;BME280;19126;47.472;7.850;2023-03-14T05:56:42;94918.75;;;8.29;100.00
32761;BME280;19126;47.472;7.850;2023-03-14T05:59:09;94898.41;;;8.45;99.46
32761;BME280;19126;47.472;7.850;2023-03-14T06:01:37;94890.97;;;8.42;99.51
32761;BME280;19126;47.472;7.850;2023-03-14T06:04:04;94897.59;;;8.44;98.58
32761;BME280;19126;47.472;7.850;2023-03-14T06:06:32;94905.84;;;8.41;98.82
32761;BME280;19126;47.472;7.850;2023-03-14T06:09:00;94894.19;;;8.44;96.76
32761;BME280;19126;47.472;7.850;2023-03-14T06:11:27;94902.66;;;8.46;97.76
32761;BME280;19126;47.472;7.850;2023-03-14T06:13:54;94900.03;;;8.46;97.96
32761;BME280;19126;47.472;7.850;2023-03-14T06:16:21;94909.50;;;8.54;97.24
32761;BME280;19126;47.472;7.850;2023-03-14T06:18:48;94908.69;;;8.60;95.88
32761;BME280;19126;47.472;7.850;2023-03-14T06:21:15;94900.03;;;8.59;97.97
32761;BME280;19126;47.472;7.850;2023-03-14T06:23:46;94917.94;;;8.62;98.13
32761;BME280;19126;47.472;7.850;2023-03-14T06:26:23;94913.72;;;8.61;98.04
32761;BME280;19126;47.472;7.850;2023-03-14T06:28:50;94920.97;;;8.59;100.00
32761;BME280;19126;47.472;7.850;2023-03-14T06:31:19;94917.75;;;8.57;100.00
32761;BME280;19126;47.472;7.850;2023-03-14T06:33:50;94913.91;;;8.60;100.00
32761;BME280;19126;47.472;7.850;2023-03-14T06:36:17;94910.28;;;8.61;100.00
32761;BME280;19126;47.472;7.850;2023-03-14T06:38:46;94914.91;;;8.59;100.00
32761;BME280;19126;47.472;7.850;2023-03-14T06:41:22;94909.91;;;8.57;100.00
32761;BME280;19126;47.472;7.850;2023-03-14T06:43:51;94915.13;;;8.57;100.00
32761;BME280;19126;47.472;7.850;2023-03-14T06:46:21;94903.81;;;8.77;100.00
32761;BME280;19126;47.472;7.850;2023-03-14T06:48:48;94900.34;;;8.97;95.81
32761;BME280;19126;47.472;7.850;2023-03-14T06:51:18;94912.16;;;9.13;93.53
32761;BME280;19126;47.472;7.850;2023-03-14T06:53:49;94906.66;;;9.34;88.99
32761;BME280;19126;47.472;7.850;2023-03-14T06:56:26;94912.84;;;9.47;88.95
32761;BME280;19126;47.472;7.850;2023-03-14T06:58:54;94910.34;;;9.59;87.88
32761;BME280;19126;47.472;7.850;2023-03-14T07:01:22;94906.09;;;9.64;85.42
32761;BME280;19126;47.472;7.850;2023-03-14T07:03:50;94904.19;;;9.78;84.56
32761;BME280;19126;47.472;7.850;2023-03-14T07:06:17;94905.00;;;9.79;81.77
32761;BME280;19126;47.472;7.850;2023-03-14T07:08:46;94907.81;;;9.77;82.70
32761;BME280;19126;47.472;7.850;2023-03-14T07:11:13;94907.47;;;9.74;83.06
32761;BME280;19126;47.472;7.850;2023-03-14T07:13:40;94907.22;;;9.75;81.42
32761;BME280;19126;47.472;7.850;2023-03-14T07:16:08;94922.78;;;9.70;82.17
32761;BME280;19126;47.472;7.850;2023-03-14T07:18:35;94931.25;;;9.72;81.65
32761;BME280;19126;47.472;7.850;2023-03-14T07:21:03;94914.50;;;9.73;81.94
32761;BME280;19126;47.472;7.850;2023-03-14T07:23:30;94942.94;;;9.76;82.01
32761;BME280;19126;47.472;7.850;2023-03-14T07:26:03;94931.66;;;9.76;82.52
32761;BME280;19126;47.472;7.850;2023-03-14T07:28:32;94943.34;;;9.73;84.00
32761;BME280;19126;47.472;7.850;2023-03-14T07:31:00;94942.94;;;9.76;84.34
32761;BME280;19126;47.472;7.850;2023-03-14T07:33:27;94958.63;;;9.83;82.62
32761;BME280;19126;47.472;7.850;2023-03-14T07:35:54;94954.59;;;9.87;81.86
32761;BME280;19126;47.472;7.850;2023-03-14T07:38:21;94951.56;;;9.83;83.56
32761;BME280;19126;47.472;7.850;2023-03-14T07:41:00;94965.88;;;9.88;84.07
32761;BME280;19126;47.472;7.850;2023-03-14T07:43:28;94969.31;;;9.88;83.61
32761;BME280;19126;47.472;7.850;2023-03-14T07:45:55;94961.25;;;9.83;83.52
32761;BME280;19126;47.472;7.850;2023-03-14T07:48:22;94981.00;;;9.86;83.87
32761;BME280;19126;47.472;7.850;2023-03-14T07:50:53;94985.81;;;9.89;82.07
32761;BME280;19126;47.472;7.850;2023-03-14T07:53:20;94975.69;;;9.99;82.53
32761;BME280;19126;47.472;7.850;2023-03-14T07:55:51;94984.13;;;10.08;81.88
32761;BME280;19126;47.472;7.850;2023-03-14T07:58:20;94989.28;;;10.21;82.80
32761;BME280;19126;47.472;7.850;2023-03-14T08:00:48;94988.16;;;10.36;82.72
32761;BME280;19126;47.472;7.850;2023-03-14T08:03:16;94980.81;;;10.51;82.00
32761;BME280;19126;47.472;7.850;2023-03-14T08:05:43;94999.56;;;10.55;80.72
32761;BME280;19126;47.472;7.850;2023-03-14T08:08:10;94990.34;;;10.46;80.29
32761;BME280;19126;47.472;7.850;2023-03-14T08:10:38;94990.50;;;10.51;81.04
32761;BME280;19126;47.472;7.850;2023-03-14T08:13:05;95001.66;;;10.46;80.05
32761;BME280;19126;47.472;7.850;2023-03-14T08:15:33;94998.03;;;10.40;79.93
32761;BME280;19126;47.472;7.850;2023-03-14T08:18:04;94991.78;;;10.41;79.70
32761;BME280;19126;47.472;7.850;2023-03-14T08:20:32;95007.50;;;10.48;80.07
32761;BME280;19126;47.472;7.850;2023-03-14T08:23:00;95007.13;;;10.38;79.23
32761;BME280;19126;47.472;7.850;2023-03-14T08:25:28;95007.75;;;10.33;79.78
32761;BME280;19126;47.472;7.850;2023-03-14T08:27:55;95026.97;;;10.27;78.54
32761;BME280;19126;47.472;7.850;2023-03-14T08:30:22;95025.19;;;10.27;78.32
32761;BME280;19126;47.472;7.850;2023-03-14T08:32:51;95019.94;;;10.21;79.58
32761;BME280;19126;47.472;7.850;2023-03-14T08:35:21;95014.69;;;10.21;78.70
32761;BME280;19126;47.472;7.850;2023-03-14T08:37:52;95023.81;;;10.18;78.91
32761;BME280;19126;47.472;7.850;2023-03-14T08:40:19;95031.88;;;10.17;78.88
32761;BME280;19126;47.472;7.850;2023-03-14T08:42:50;95049.66;;;10.15;79.09
32761;BME280;19126;47.472;7.850;2023-03-14T08:45:18;95040.22;;;10.07;78.83
32761;BME280;19126;47.472;7.850;2023-03-14T08:47:45;95036.84;;;10.00;80.50
32761;BME280;19126;47.472;7.850;2023-03-14T08:50:14;95031.84;;;9.91;78.12
32761;BME280;19126;47.472;7.850;2023-03-14T08:52:41;95025.16;;;9.95;80.45
32761;BME280;19126;47.472;7.850;2023-03-14T08:55:17;95024.31;;;10.02;81.71
32761;BME280;19126;47.472;7.850;2023-03-14T08:57:46;95031.78;;;9.98;81.10
32761;BME280;19126;47.472;7.850;2023-03-14T09:00:17;95041.03;;;10.07;82.09
32761;BME280;19126;47.472;7.850;2023-03-14T09:02:44;95025.91;;;10.03;81.89
32761;BME280;19126;47.472;7.850;2023-03-14T09:05:11;95031.97;;;10.03;80.98
32761;BME280;19126;47.472;7.850;2023-03-14T09:07:40;95038.63;;;10.06;80.41
32761;BME280;19126;47.472;7.850;2023-03-14T09:10:09;95045.31;;;10.02;81.04
32761;BME280;19126;47.472;7.850;2023-03-14T09:12:36;95050.75;;;10.00;80.52
32761;BME280;19126;47.472;7.850;2023-03-14T09:15:04;95045.53;;;9.93;80.51
32761;BME280;19126;47.472;7.850;2023-03-14T09:17:31;95056.22;;;9.92;82.00
32761;BME280;19126;47.472;7.850;2023-03-14T09:19:58;95056.09;;;9.80;83.17
32761;BME280;19126;47.472;7.850;2023-03-14T09:22:25;95047.22;;;9.81;83.78
32761;BME280;19126;47.472;7.850;2023-03-14T09:24:57;95051.81;;;9.86;85.26
32761;BME280;19126;47.472;7.850;2023-03-14T09:27:27;95055.28;;;9.79;84.09
32761;BME280;19126;47.472;7.850;2023-03-14T09:29:55;95052.06;;;9.77;85.13
32761;BME280;19126;47.472;7.850;2023-03-14T09:32:22;95059.97;;;9.71;85.34
32761;BME280;19126;47.472;7.850;2023-03-14T09:34:49;95055.13;;;9.61;86.40
32761;BME280;19126;47.472;7.850;2023-03-14T09:37:16;95068.28;;;9.47;87.38
32761;BME280;19126;47.472;7.850;2023-03-14T09:39:46;95081.41;;;9.34;92.41
32761;BME280;19126;47.472;7.850;2023-03-14T09:42:16;95080.03;;;9.24;96.19
32761;BME280;19126;47.472;7.850;2023-03-14T09:44:50;95087.47;;;9.21;96.86
32761;BME280;19126;47.472;7.850;2023-03-14T09:47:19;95098.94;;;9.20;100.00
32761;BME280;19126;47.472;7.850;2023-03-14T09:49:47;95107.03;;;8.98;100.00
32761;BME280;19126;47.472;7.850;2023-03-14T09:52:15;95112.06;;;8.93;100.00
32761;BME280;19126;47.472;7.850;2023-03-14T09:54:46;95126.78;;;8.87;100.00
32761;BME280;19126;47.472;7.850;2023-03-14T09:57:17;95132.59;;;8.69;100.00
32761;BME280;19126;47.472;7.850;2023-03-14T09:59:45;95129.34;;;8.67;100.00
32761;BME280;19126;47.472;7.850;2023-03-14T10:02:16;95124.53;;;8.57;100.00
32761;BME280;19126;47.472;7.850;2023-03-14T10:04:45;95126.72;;;8.54;100.00
32761;BME280;19126;47.472;7.850;2023-03-14T10:07:14;95126.75;;;8.67;100.00
32761;BME280;19126;47.472;7.850;2023-03-14T10:09:43;95122.31;;;8.74;100.00
32761;BME280;19126;47.472;7.850;2023-03-14T10:12:11;95137.44;;;8.79;100.00
32761;BME280;19126;47.472;7.850;2023-03-14T10:14:46;95136.44;;;8.80;100.00
32761;BME280;19126;47.472;7.850;2023-03-14T10:17:15;95154.16;;;8.78;100.00
32761;BME280;19126;47.472;7.850;2023-03-14T10:19:55;95150.50;;;8.65;100.00
32761;BME280;19126;47.472;7.850;2023-03-14T10:22:24;95155.34;;;8.69;100.00
32761;BME280;19126;47.472;7.850;2023-03-14T10:24:53;95160.13;;;8.52;100.00
32761;BME280;19126;47.472;7.850;2023-03-14T10:27:23;95161.91;;;8.44;100.00
32761;BME280;19126;47.472;7.850;2023-03-14T10:30:03;95171.13;;;8.40;100.00
32761;BME280;19126;47.472;7.850;2023-03-14T10:32:33;95175.97;;;8.36;100.00
32761;BME280;19126;47.472;7.850;2023-03-14T10:35:18;95180.75;;;8.26;100.00
32761;BME280;19126;47.472;7.850;2023-03-14T10:37:52;95169.41;;;8.05;100.00
32761;BME280;19126;47.472;7.850;2023-03-14T10:40:27;95185.44;;;7.96;100.00
32761;BME280;19126;47.472;7.850;2023-03-14T10:42:58;95199.81;;;7.78;100.00
32761;BME280;19126;47.472;7.850;2023-03-14T10:45:32;95207.81;;;7.70;100.00
32761;BME280;19126;47.472;7.850;2023-03-14T10:48:06;95235.31;;;7.66;100.00
32761;BME280;19126;47.472;7.850;2023-03-14T10:50:48;95241.22;;;7.46;100.00
32761;BME280;19126;47.472;7.850;2023-03-14T10:53:17;95245.63;;;7.45;100.00
32761;BME280;19126;47.472;7.850;2023-03-14T10:55:47;95256.16;;;7.30;100.00
32761;BME280;19126;47.472;7.850;2023-03-14T10:58:25;95269.47;;;7.36;100.00
32761;BME280;19126;47.472;7.850;2023-03-14T11:01:21;95254.34;;;7.31;100.00
32761;BME280;19126;47.472;7.850;2023-03-14T11:03:53;95271.50;;;7.18;100.00
32761;BME280;19126;47.472;7.850;2023-03-14T11:06:25;95280.06;;;7.12;100.00
32761;BME280;19126;47.472;7.850;2023-03-14T11:08:57;95291.84;;;7.23;100.00
32761;BME280;19126;47.472;7.850;2023-03-14T11:11:31;95298.94;;;7.29;100.00
32761;BME280;19126;47.472;7.850;2023-03-14T11:14:05;95306.78;;;7.29;100.00
32761;BME280;19126;47.472;7.850;2023-03-14T11:16:40;95301.09;;;7.26;100.00
32761;BME280;19126;47.472;7.850;2023-03-14T11:19:31;95311.38;;;7.27;100.00
32761;BME280;19126;47.472;7.850;2023-03-14T11:22:01;95322.06;;;7.11;100.00
32761;BME280;19126;47.472;7.850;2023-03-14T11:24:37;95314.41;;;7.09;100.00
32761;BME280;19126;47.472;7.850;2023-03-14T11:27:15;95322.69;;;7.13;100.00
32761;BME280;19126;47.472;7.850;2023-03-14T11:29:48;95333.88;;;7.07;100.00
32761;BME280;19126;47.472;7.850;2023-03-14T11:32:23;95328.91;;;6.97;100.00
32761;BME280;19126;47.472;7.850;2023-03-14T11:34:51;95341.88;;;7.05;100.00
32761;BME280;19126;47.472;7.850;2023-03-14T11:37:22;95344.84;;;7.02;100.00
32761;BME280;19126;47.472;7.850;2023-03-14T11:39:59;95375.91;;;6.97;100.00
32761;BME280;19126;47.472;7.850;2023-03-14T11:42:27;95372.88;;;6.93;100.00
32761;BME280;19126;47.472;7.850;2023-03-14T11:44:58;95401.50;;;7.01;100.00
32761;BME280;19126;47.472;7.850;2023-03-14T11:47:29;95412.72;;;7.02;100.00
32761;BME280;19126;47.472;7.850;2023-03-14T11:50:00;95409.97;;;7.03;100.00
32761;BME280;19126;47.472;7.850;2023-03-14T11:52:30;95431.28;;;7.22;100.00
32761;BME280;19126;47.472;7.850;2023-03-14T11:55:02;95428.34;;;7.32;100.00
32761;BME280;19126;47.472;7.850;2023-03-14T11:57:31;95434.63;;;7.53;100.00
32761;BME280;19126;47.472;7.850;2023-03-14T12:00:01;95443.09;;;7.55;100.00
32761;BME280;19126;47.472;7.850;2023-03-14T12:02:39;95443.59;;;7.65;100.00
32761;BME280;19126;47.472;7.850;2023-03-14T12:05:34;95447.16;;;7.79;100.00
32761;BME280;19126;47.472;7.850;2023-03-14T12:08:27;95465.06;;;7.97;100.00
32761;BME280;19126;47.472;7.850;2023-03-14T12:13:39;95473.34;;;8.01;100.00
32761;BME280;19126;47.472;7.850;2023-03-14T12:16:25;95487.44;;;7.85;100.00
32761;BME280;19126;47.472;7.850;2023-03-14T12:18:54;95487.91;;;7.73;100.00
32761;BME280;19126;47.472;7.850;2023-03-14T12:21:46;95522.84;;;7.51;100.00
32761;BME280;19126;47.472;7.850;2023-03-14T12:24:18;95520.78;;;7.46;100.00
32761;BME280;19126;47.472;7.850;2023-03-14T12:26:52;95533.72;;;7.69;100.00
32761;BME280;19126;47.472;7.850;2023-03-14T12:29:19;95528.97;;;7.58;100.00
32761;BME280;19126;47.472;7.850;2023-03-14T12:31:47;95561.06;;;7.37;100.00
32761;BME280;19126;47.472;7.850;2023-03-14T12:34:31;95550.88;;;7.27;100.00
32761;BME280;19126;47.472;7.850;2023-03-14T12:37:06;95563.94;;;7.42;100.00
32761;BME280;19126;47.472;7.850;2023-03-14T12:39:41;95583.75;;;7.51;100.00
32761;BME280;19126;47.472;7.850;2023-03-14T12:42:13;95592.06;;;7.40;100.00
32761;BME280;19126;47.472;7.850;2023-03-14T12:44:49;95577.63;;;7.14;100.00
32761;BME280;19126;47.472;7.850;2023-03-14T12:47:47;95588.69;;;7.16;100.00
32761;BME280;19126;47.472;7.850;2023-03-14T12:50:25;95615.53;;;7.10;100.00
32761;BME280;19126;47.472;7.850;2023-03-14T12:53:02;95643.19;;;7.19;100.00
32761;BME280;19126;47.472;7.850;2023-03-14T12:55:36;95626.69;;;7.03;100.00
32761;BME280;19126;47.472;7.850;2023-03-14T12:58:12;95658.09;;;6.95;100.00
32761;BME280;19126;47.472;7.850;2023-03-14T13:00:45;95658.88;;;6.96;100.00
32761;BME280;19126;47.472;7.850;2023-03-14T13:03:19;95637.84;;;6.74;100.00
32761;BME280;19126;47.472;7.850;2023-03-14T13:05:56;95634.72;;;6.79;100.00
32761;BME280;19126;47.472;7.850;2023-03-14T13:08:36;95634.44;;;6.73;100.00
32761;BME280;19126;47.472;7.850;2023-03-14T13:11:08;95639.03;;;6.86;100.00
32761;BME280;19126;47.472;7.850;2023-03-14T13:13:42;95647.84;;;7.09;100.00
32761;BME280;19126;47.472;7.850;2023-03-14T13:16:15;95637.56;;;7.07;100.00
32761;BME280;19126;47.472;7.850;2023-03-14T13:18:45;95649.41;;;6.95;100.00
32761;BME280;19126;47.472;7.850;2023-03-14T13:21:15;95641.22;;;6.83;100.00
32761;BME280;19126;47.472;7.850;2023-03-14T13:24:01;95652.25;;;7.08;100.00
32761;BME280;19126;47.472;7.850;2023-03-14T13:26:32;95657.75;;;7.13;100.00
32761;BME280;19126;47.472;7.850;2023-03-14T13:29:07;95657.41;;;7.16;100.00